sensor_id;sensor_type;location;lat;lon;timestamp;pressure;altitude;pressure_sealevel;temperature;humidity
80733;BME280;70130;44.534;18.678;2023-06-22T00:02:15;99317.13;;;22.91;74.71
80733;BME280;70130;44.534;18.678;2023-06-22T00:04:41;99300.28;;;22.99;74.39
80733;BME280;70130;44.534;18.678;2023-06-22T00:07:06;99316.34;;;22.90;75.07
80733;BME280;70130;44.534;18.678;2023-06-22T00:09:32;99315.66;;;22.79;75.39
80733;BME280;70130;44.534;18.678;2023-06-22T00:11:58;99317.56;;;22.82;74.91
80733;BME280;70130;44.534;18.678;2023-06-22T00:14:24;99318.34;;;22.83;75.17
80733;BME280;70130;44.534;18.678;2023-06-22T00:16:49;99324.19;;;22.85;74.90
80733;BME280;70130;44.534;18.678;2023-06-22T00:19:23;99329.69;;;22.88;74.91
80733;BME280;70130;44.534;18.678;2023-06-22T00:21:49;99321.06;;;22.86;74.50
80733;BME280;70130;44.534;18.678;2023-06-22T00:24:19;99324.63;;;22.83;74.88
80733;BME280;70130;44.534;18.678;2023-06-22T00:26:45;99327.78;;;22.64;75.27
80733;BME280;70130;44.534;18.678;2023-06-22T00:29:11;99321.09;;;22.75;74.76
80733;BME280;70130;44.534;18.678;2023-06-22T00:31:36;99308.63;;;22.71;75.27
80733;BME280;70130;44.534;18.678;2023-06-22T00:34:02;99311.34;;;22.74;75.11
80733;BME280;70130;44.534;18.678;2023-06-22T00:36:28;99304.00;;;22.47;76.29
80733;BME280;70130;44.534;18.678;2023-06-22T00:38:53;99307.84;;;22.60;75.93
80733;BME280;70130;44.534;18.678;2023-06-22T00:41:19;99299.22;;;22.65;75.71
80733;BME280;70130;44.534;18.678;2023-06-22T00:43:45;99298.09;;;22.62;75.60
80733;BME280;70130;44.534;18.678;2023-06-22T00:46:11;99293.41;;;22.63;75.85
80733;BME280;70130;44.534;18.678;2023-06-22T00:48:37;99295.38;;;22.55;75.99
80733;BME280;70130;44.534;18.678;2023-06-22T00:51:03;99289.59;;;22.21;76.74
80733;BME280;70130;44.534;18.678;2023-06-22T00:53:29;99298.16;;;22.37;76.08
80733;BME280;70130;44.534;18.678;2023-06-22T00:55:54;99296.97;;;22.42;75.53
80733;BME280;70130;44.534;18.678;2023-06-22T00:58:21;99300.09;;;22.40;75.41
80733;BME280;70130;44.534;18.678;2023-06-22T01:00:48;99300.09;;;22.48;75.00
80733;BME280;70130;44.534;18.678;2023-06-22T01:03:14;99284.47;;;22.41;75.35
80733;BME280;70130;44.534;18.678;2023-06-22T01:05:40;99289.16;;;22.40;75.07
80733;BME280;70130;44.534;18.678;2023-06-22T01:11:01;99272.78;;;22.37;75.48
80733;BME280;70130;44.534;18.678;2023-06-22T01:16:30;99276.31;;;22.30;75.15
80733;BME280;70130;44.534;18.678;2023-06-22T01:18:59;99268.91;;;22.27;75.16
80733;BME280;70130;44.534;18.678;2023-06-22T01:21:30;99261.13;;;22.19;75.31
80733;BME280;70130;44.534;18.678;2023-06-22T01:24:23;99246.28;;;22.13;75.33
80733;BME280;70130;44.534;18.678;2023-06-22T01:27:09;99243.16;;;22.18;75.09
80733;BME280;70130;44.534;18.678;2023-06-22T01:29:40;99224.81;;;22.11;75.34
80733;BME280;70130;44.534;18.678;2023-06-22T01:32:09;99221.34;;;22.04;75.45
80733;BME280;70130;44.534;18.678;2023-06-22T01:34:38;99216.25;;;22.06;75.90
80733;BME280;70130;44.534;18.678;2023-06-22T01:37:06;99200.28;;;21.76;76.50
80733;BME280;70130;44.534;18.678;2023-06-22T01:39:32;99191.28;;;21.86;76.27
80733;BME280;70130;44.534;18.678;2023-06-22T01:41:59;99184.66;;;21.83;76.11
80733;BME280;70130;44.534;18.678;2023-06-22T01:44:25;99181.16;;;21.83;76.04
80733;BME280;70130;44.534;18.678;2023-06-22T01:46:52;99182.69;;;21.87;75.86
80733;BME280;70130;44.534;18.678;2023-06-22T01:49:18;99164.00;;;21.68;76.41
80733;BME280;70130;44.534;18.678;2023-06-22T01:51:44;99158.19;;;21.56;76.89
80733;BME280;70130;44.534;18.678;2023-06-22T01:54:09;99149.25;;;21.30;77.51
80733;BME280;70130;44.534;18.678;2023-06-22T01:56:35;99136.00;;;21.36;77.70
80733;BME280;70130;44.534;18.678;2023-06-22T01:59:13;99136.75;;;21.50;77.11
80733;BME280;70130;44.534;18.678;2023-06-22T02:02:08;99140.22;;;21.62;76.92
80733;BME280;70130;44.534;18.678;2023-06-22T02:04:47;99150.34;;;21.61;76.79
80733;BME280;70130;44.534;18.678;2023-06-22T02:07:15;99147.25;;;21.70;76.45
80733;BME280;70130;44.534;18.678;2023-06-22T02:09:44;99152.34;;;21.53;77.02
80733;BME280;70130;44.534;18.678;2023-06-22T02:12:12;99138.69;;;21.46;77.35
80733;BME280;70130;44.534;18.678;2023-06-22T02:14:39;99144.16;;;21.46;77.12
80733;BME280;70130;44.534;18.678;2023-06-22T02:17:05;99147.28;;;21.48;77.15
80733;BME280;70130;44.534;18.678;2023-06-22T02:19:36;99143.75;;;21.59;77.07
80733;BME280;70130;44.534;18.678;2023-06-22T02:22:03;99131.28;;;21.54;77.13
80733;BME280;70130;44.534;18.678;2023-06-22T02:24:29;99121.09;;;21.62;77.19
80733;BME280;70130;44.534;18.678;2023-06-22T02:27:00;99133.63;;;21.56;77.23
80733;BME280;70130;44.534;18.678;2023-06-22T02:29:27;99143.34;;;21.57;77.37
80733;BME280;70130;44.534;18.678;2023-06-22T02:31:54;99155.06;;;21.46;77.68
80733;BME280;70130;44.534;18.678;2023-06-22T02:34:19;99161.34;;;21.15;78.85
80733;BME280;70130;44.534;18.678;2023-06-22T02:36:46;99159.00;;;21.31;78.43
80733;BME280;70130;44.534;18.678;2023-06-22T02:39:23;99155.09;;;21.39;78.08
80733;BME280;70130;44.534;18.678;2023-06-22T02:41:53;99159.00;;;21.45;77.65
80733;BME280;70130;44.534;18.678;2023-06-22T02:44:21;99156.25;;;21.45;77.73
80733;BME280;70130;44.534;18.678;2023-06-22T02:46:48;99166.78;;;21.43;77.91
80733;BME280;70130;44.534;18.678;2023-06-22T02:49:14;99159.00;;;21.45;77.87
80733;BME280;70130;44.534;18.678;2023-06-22T02:51:44;99171.44;;;21.53;77.77
80733;BME280;70130;44.534;18.678;2023-06-22T02:54:11;99174.97;;;21.50;77.84
80733;BME280;70130;44.534;18.678;2023-06-22T02:56:37;99182.75;;;21.41;78.27
80733;BME280;70130;44.534;18.678;2023-06-22T02:59:03;99177.34;;;21.31;78.86
80733;BME280;70130;44.534;18.678;2023-06-22T03:01:35;99176.53;;;21.34;78.63
80733;BME280;70130;44.534;18.678;2023-06-22T03:04:10;99192.53;;;21.35;78.65
80733;BME280;70130;44.534;18.678;2023-06-22T03:06:36;99190.19;;;21.44;78.45
80733;BME280;70130;44.534;18.678;2023-06-22T03:09:04;99209.28;;;21.23;79.02
80733;BME280;70130;44.534;18.678;2023-06-22T03:11:32;99211.25;;;21.26;78.88
80733;BME280;70130;44.534;18.678;2023-06-22T03:13:59;99247.03;;;21.07;79.37
80733;BME280;70130;44.534;18.678;2023-06-22T03:16:25;99257.19;;;21.10;79.26
80733;BME280;70130;44.534;18.678;2023-06-22T03:18:52;99267.34;;;21.17;79.21
80733;BME280;70130;44.534;18.678;2023-06-22T03:21:19;99281.34;;;21.08;79.57
80733;BME280;70130;44.534;18.678;2023-06-22T03:23:45;99265.34;;;21.03;79.83
80733;BME280;70130;44.534;18.678;2023-06-22T03:26:11;99248.63;;;21.01;79.79
80733;BME280;70130;44.534;18.678;2023-06-22T03:28:37;99248.25;;;21.17;79.15
80733;BME280;70130;44.534;18.678;2023-06-22T03:31:04;99256.84;;;21.15;79.61
80733;BME280;70130;44.534;18.678;2023-06-22T03:33:32;99256.47;;;21.20;79.28
80733;BME280;70130;44.534;18.678;2023-06-22T03:35:58;99274.31;;;20.96;79.83
80733;BME280;70130;44.534;18.678;2023-06-22T03:38:23;99292.63;;;20.96;80.36
80733;BME280;70130;44.534;18.678;2023-06-22T03:40:52;99289.13;;;20.99;79.86
80733;BME280;70130;44.534;18.678;2023-06-22T03:43:19;99283.69;;;20.99;80.06
80733;BME280;70130;44.534;18.678;2023-06-22T03:45:45;99281.34;;;21.01;80.08
80733;BME280;70130;44.534;18.678;2023-06-22T03:48:12;99276.34;;;21.24;79.49
80733;BME280;70130;44.534;18.678;2023-06-22T03:50:38;99277.16;;;21.35;79.01
80733;BME280;70130;44.534;18.678;2023-06-22T03:53:03;99273.25;;;21.33;79.14
80733;BME280;70130;44.534;18.678;2023-06-22T03:55:29;99273.25;;;21.33;79.50
80733;BME280;70130;44.534;18.678;2023-06-22T03:57:55;99273.66;;;21.45;78.84
80733;BME280;70130;44.534;18.678;2023-06-22T04:00:25;99273.28;;;21.50;78.63
80733;BME280;70130;44.534;18.678;2023-06-22T04:02:50;99271.28;;;21.62;77.89
80733;BME280;70130;44.534;18.678;2023-06-22T04:05:16;99293.91;;;21.30;79.37
80733;BME280;70130;44.534;18.678;2023-06-22T04:07:44;99276.38;;;21.31;79.24
80733;BME280;70130;44.534;18.678;2023-06-22T04:10:10;99295.09;;;21.40;79.11
80733;BME280;70130;44.534;18.678;2023-06-22T04:12:35;99303.31;;;21.50;78.94
80733;BME280;70130;44.534;18.678;2023-06-22T04:15:01;99299.78;;;21.53;78.51
80733;BME280;70130;44.534;18.678;2023-06-22T04:17:27;99303.28;;;21.58;78.73
80733;BME280;70130;44.534;18.678;2023-06-22T04:19:52;99305.66;;;21.59;78.62
80733;BME280;70130;44.534;18.678;2023-06-22T04:22:18;99297.47;;;21.56;78.70
80733;BME280;70130;44.534;18.678;2023-06-22T04:24:44;99294.72;;;21.80;77.76
80733;BME280;70130;44.534;18.678;2023-06-22T04:27:10;99291.97;;;21.87;77.60
80733;BME280;70130;44.534;18.678;2023-06-22T04:29:35;99297.03;;;21.92;77.35
80733;BME280;70130;44.534;18.678;2023-06-22T04:32:01;99300.56;;;21.93;77.19
80733;BME280;70130;44.534;18.678;2023-06-22T04:34:31;99295.50;;;21.99;77.42
80733;BME280;70130;44.534;18.678;2023-06-22T04:36:57;99287.69;;;22.11;76.80
80733;BME280;70130;44.534;18.678;2023-06-22T04:39:23;99290.78;;;22.20;76.58
80733;BME280;70130;44.534;18.678;2023-06-22T04:41:49;99296.63;;;22.29;76.11
80733;BME280;70130;44.534;18.678;2023-06-22T04:44:18;99290.38;;;22.25;76.09
80733;BME280;70130;44.534;18.678;2023-06-22T04:46:55;99293.09;;;22.25;76.08
80733;BME280;70130;44.534;18.678;2023-06-22T04:49:26;99300.13;;;22.33;75.64
80733;BME280;70130;44.534;18.678;2023-06-22T04:52:03;99297.78;;;22.39;75.60
80733;BME280;70130;44.534;18.678;2023-06-22T04:54:29;99300.91;;;22.34;75.90
80733;BME280;70130;44.534;18.678;2023-06-22T04:57:01;99296.22;;;22.38;75.61
80733;BME280;70130;44.534;18.678;2023-06-22T04:59:29;99300.09;;;22.40;75.50
80733;BME280;70130;44.534;18.678;2023-06-22T05:01:56;99288.75;;;22.49;75.21
80733;BME280;70130;44.534;18.678;2023-06-22T05:04:22;99296.16;;;22.56;75.13
80733;BME280;70130;44.534;18.678;2023-06-22T05:06:49;99293.00;;;22.61;74.67
80733;BME280;70130;44.534;18.678;2023-06-22T05:09:15;99292.22;;;22.60;74.54
80733;BME280;70130;44.534;18.678;2023-06-22T05:11:40;99289.13;;;22.58;75.07
80733;BME280;70130;44.534;18.678;2023-06-22T05:14:06;99285.66;;;22.40;76.04
80733;BME280;70130;44.534;18.678;2023-06-22T05:16:32;99292.63;;;22.62;75.47
80733;BME280;70130;44.534;18.678;2023-06-22T05:18:58;99298.09;;;22.59;75.72
80733;BME280;70130;44.534;18.678;2023-06-22T05:21:26;99304.72;;;22.61;75.57
80733;BME280;70130;44.534;18.678;2023-06-22T05:23:53;99300.03;;;22.69;75.25
80733;BME280;70130;44.534;18.678;2023-06-22T05:26:20;99300.41;;;22.78;75.07
80733;BME280;70130;44.534;18.678;2023-06-22T05:28:46;99300.75;;;22.80;75.03
80733;BME280;70130;44.534;18.678;2023-06-22T05:31:13;99310.88;;;22.90;75.44
80733;BME280;70130;44.534;18.678;2023-06-22T05:33:40;99317.16;;;22.87;74.99
80733;BME280;70130;44.534;18.678;2023-06-22T05:36:06;99309.66;;;23.02;74.81
80733;BME280;70130;44.534;18.678;2023-06-22T05:38:32;99322.53;;;23.05;74.34
80733;BME280;70130;44.534;18.678;2023-06-22T05:40:58;99312.72;;;23.14;74.41
80733;BME280;70130;44.534;18.678;2023-06-22T05:43:23;99318.16;;;23.21;74.13
80733;BME280;70130;44.534;18.678;2023-06-22T05:45:49;99316.19;;;23.22;73.79
80733;BME280;70130;44.534;18.678;2023-06-22T05:48:15;99308.34;;;23.28;73.68
80733;BME280;70130;44.534;18.678;2023-06-22T05:50:40;99309.19;;;23.14;74.03
80733;BME280;70130;44.534;18.678;2023-06-22T05:53:06;99316.56;;;23.28;74.22
80733;BME280;70130;44.534;18.678;2023-06-22T05:55:32;99318.47;;;23.38;74.00
80733;BME280;70130;44.534;18.678;2023-06-22T05:57:58;99316.00;;;23.54;72.69
80733;BME280;70130;44.534;18.678;2023-06-22T06:00:24;99312.06;;;23.58;72.92
80733;BME280;70130;44.534;18.678;2023-06-22T06:02:50;99313.16;;;23.72;72.97
80733;BME280;70130;44.534;18.678;2023-06-22T06:05:15;99311.84;;;23.83;72.83
80733;BME280;70130;44.534;18.678;2023-06-22T06:07:45;99310.28;;;23.86;72.96
80733;BME280;70130;44.534;18.678;2023-06-22T06:10:10;99312.59;;;23.91;72.50
80733;BME280;70130;44.534;18.678;2023-06-22T06:12:36;99310.97;;;23.97;72.02
80733;BME280;70130;44.534;18.678;2023-06-22T06:15:03;99309.75;;;23.98;71.80
80733;BME280;70130;44.534;18.678;2023-06-22T06:17:29;99308.97;;;24.01;71.65
80733;BME280;70130;44.534;18.678;2023-06-22T06:19:54;99309.28;;;24.10;71.08
80733;BME280;70130;44.534;18.678;2023-06-22T06:22:20;99299.03;;;24.14;71.00
80733;BME280;70130;44.534;18.678;2023-06-22T06:24:48;99305.72;;;24.17;71.37
80733;BME280;70130;44.534;18.678;2023-06-22T06:27:13;99292.22;;;24.33;70.75
80733;BME280;70130;44.534;18.678;2023-06-22T06:29:39;99306.69;;;24.37;70.81
80733;BME280;70130;44.534;18.678;2023-06-22T06:32:05;99301.13;;;24.44;70.42
80733;BME280;70130;44.534;18.678;2023-06-22T06:34:31;99299.19;;;24.41;69.97
80733;BME280;70130;44.534;18.678;2023-06-22T06:36:56;99299.47;;;24.50;70.45
80733;BME280;70130;44.534;18.678;2023-06-22T06:39:22;99290.75;;;24.59;69.79
80733;BME280;70130;44.534;18.678;2023-06-22T06:41:48;99295.38;;;24.65;69.31
80733;BME280;70130;44.534;18.678;2023-06-22T06:44:14;99289.34;;;24.77;68.94
80733;BME280;70130;44.534;18.678;2023-06-22T06:46:40;99286.50;;;24.88;69.10
80733;BME280;70130;44.534;18.678;2023-06-22T06:49:07;99286.41;;;24.95;68.75
80733;BME280;70130;44.534;18.678;2023-06-22T06:51:33;99283.34;;;25.16;68.66
80733;BME280;70130;44.534;18.678;2023-06-22T06:53:58;99289.28;;;25.15;67.77
80733;BME280;70130;44.534;18.678;2023-06-22T06:56:24;99276.72;;;25.14;68.01
80733;BME280;70130;44.534;18.678;2023-06-22T06:58:50;99284.50;;;25.19;68.17
80733;BME280;70130;44.534;18.678;2023-06-22T07:01:16;99279.97;;;25.32;67.74
80733;BME280;70130;44.534;18.678;2023-06-22T07:03:42;99289.56;;;25.47;67.23
80733;BME280;70130;44.534;18.678;2023-06-22T07:06:08;99285.38;;;25.39;67.01
80733;BME280;70130;44.534;18.678;2023-06-22T07:08:34;99280.59;;;25.43;67.25
80733;BME280;70130;44.534;18.678;2023-06-22T07:11:01;99279.75;;;25.46;67.22
80733;BME280;70130;44.534;18.678;2023-06-22T07:13:27;99278.84;;;25.56;66.78
80733;BME280;70130;44.534;18.678;2023-06-22T07:15:53;99273.53;;;25.69;66.73
80733;BME280;70130;44.534;18.678;2023-06-22T07:18:19;99276.28;;;25.69;66.03
80733;BME280;70130;44.534;18.678;2023-06-22T07:20:45;99271.88;;;25.75;65.95
80733;BME280;70130;44.534;18.678;2023-06-22T07:23:10;99275.75;;;25.77;65.61
80733;BME280;70130;44.534;18.678;2023-06-22T07:25:36;99271.13;;;25.71;65.05
80733;BME280;70130;44.534;18.678;2023-06-22T07:28:03;99272.59;;;25.79;65.66
80733;BME280;70130;44.534;18.678;2023-06-22T07:30:30;99270.91;;;25.85;64.83
80733;BME280;70130;44.534;18.678;2023-06-22T07:32:57;99270.06;;;25.88;65.13
80733;BME280;70130;44.534;18.678;2023-06-22T07:35:24;99276.88;;;26.03;64.75
80733;BME280;70130;44.534;18.678;2023-06-22T07:37:49;99265.31;;;26.12;64.32
80733;BME280;70130;44.534;18.678;2023-06-22T07:40:15;99272.00;;;26.34;63.70
80733;BME280;70130;44.534;18.678;2023-06-22T07:42:40;99264.59;;;26.31;64.07
80733;BME280;70130;44.534;18.678;2023-06-22T07:45:08;99261.41;;;26.33;64.16
80733;BME280;70130;44.534;18.678;2023-06-22T07:47:34;99271.63;;;26.32;63.83
80733;BME280;70130;44.534;18.678;2023-06-22T07:50:01;99260.03;;;26.44;63.94
80733;BME280;70130;44.534;18.678;2023-06-22T07:52:28;99256.41;;;26.47;63.32
80733;BME280;70130;44.534;18.678;2023-06-22T07:54:54;99267.00;;;26.49;63.13
80733;BME280;70130;44.534;18.678;2023-06-22T07:57:20;99264.25;;;26.49;62.89
80733;BME280;70130;44.534;18.678;2023-06-22T07:59:45;99264.16;;;26.52;63.38
80733;BME280;70130;44.534;18.678;2023-06-22T08:02:12;99269.59;;;26.56;63.44
80733;BME280;70130;44.534;18.678;2023-06-22T08:04:37;99268.78;;;26.75;62.71
80733;BME280;70130;44.534;18.678;2023-06-22T08:07:03;99274.16;;;26.82;62.41
80733;BME280;70130;44.534;18.678;2023-06-22T08:09:30;99269.66;;;26.92;62.53
80733;BME280;70130;44.534;18.678;2023-06-22T08:11:56;99265.19;;;26.98;62.18
80733;BME280;70130;44.534;18.678;2023-06-22T08:14:23;99260.81;;;27.00;61.44
80733;BME280;70130;44.534;18.678;2023-06-22T08:16:49;99264.44;;;27.14;61.96
80733;BME280;70130;44.534;18.678;2023-06-22T08:19:14;99259.38;;;27.28;61.41
80733;BME280;70130;44.534;18.678;2023-06-22T08:21:40;99256.88;;;27.34;61.18
80733;BME280;70130;44.534;18.678;2023-06-22T08:24:06;99260.56;;;27.43;60.80
80733;BME280;70130;44.534;18.678;2023-06-22T08:26:33;99259.41;;;27.61;59.80
80733;BME280;70130;44.534;18.678;2023-06-22T08:29:04;99262.22;;;27.73;60.01
80733;BME280;70130;44.534;18.678;2023-06-22T08:31:30;99269.56;;;27.80;59.38
80733;BME280;70130;44.534;18.678;2023-06-22T08:33:56;99258.16;;;27.78;59.27
80733;BME280;70130;44.534;18.678;2023-06-22T08:36:22;99260.84;;;27.81;58.98
80733;BME280;70130;44.534;18.678;2023-06-22T08:38:47;99253.50;;;27.91;59.37
80733;BME280;70130;44.534;18.678;2023-06-22T08:41:19;99247.78;;;27.98;59.34
80733;BME280;70130;44.534;18.678;2023-06-22T08:43:44;99250.53;;;28.14;59.29
80733;BME280;70130;44.534;18.678;2023-06-22T08:46:10;99246.84;;;28.05;57.91
80733;BME280;70130;44.534;18.678;2023-06-22T08:48:36;99250.28;;;28.09;57.46
80733;BME280;70130;44.534;18.678;2023-06-22T08:51:02;99246.31;;;28.10;57.32
80733;BME280;70130;44.534;18.678;2023-06-22T08:53:28;99253.31;;;28.14;56.59
80733;BME280;70130;44.534;18.678;2023-06-22T08:55:54;99247.38;;;28.16;55.71
80733;BME280;70130;44.534;18.678;2023-06-22T08:58:20;99239.09;;;28.16;56.21
80733;BME280;70130;44.534;18.678;2023-06-22T09:00:47;99238.97;;;28.19;56.63
80733;BME280;70130;44.534;18.678;2023-06-22T09:03:13;99227.00;;;28.39;57.41
80733;BME280;70130;44.534;18.678;2023-06-22T09:05:39;99224.13;;;28.42;57.02
80733;BME280;70130;44.534;18.678;2023-06-22T09:08:04;99226.28;;;28.63;56.70
80733;BME280;70130;44.534;18.678;2023-06-22T09:10:30;99218.56;;;28.71;56.02
80733;BME280;70130;44.534;18.678;2023-06-22T09:12:57;99225.66;;;28.72;56.33
80733;BME280;70130;44.534;18.678;2023-06-22T09:15:22;99232.59;;;28.76;55.92
80733;BME280;70130;44.534;18.678;2023-06-22T09:17:48;99227.53;;;28.75;55.42
80733;BME280;70130;44.534;18.678;2023-06-22T09:20:14;99218.94;;;28.86;55.48
80733;BME280;70130;44.534;18.678;2023-06-22T09:22:40;99217.84;;;28.96;55.20
80733;BME280;70130;44.534;18.678;2023-06-22T09:25:05;99225.66;;;28.97;54.64
80733;BME280;70130;44.534;18.678;2023-06-22T09:27:31;99217.94;;;28.92;54.35
80733;BME280;70130;44.534;18.678;2023-06-22T09:29:57;99225.66;;;28.97;54.08
80733;BME280;70130;44.534;18.678;2023-06-22T09:32:24;99220.38;;;29.15;54.25
80733;BME280;70130;44.534;18.678;2023-06-22T09:34:51;99222.44;;;29.11;53.53
80733;BME280;70130;44.534;18.678;2023-06-22T09:37:16;99221.56;;;29.02;53.83
80733;BME280;70130;44.534;18.678;2023-06-22T09:39:42;99222.47;;;28.99;52.31
80733;BME280;70130;44.534;18.678;2023-06-22T09:42:08;99229.44;;;29.03;52.50
80733;BME280;70130;44.534;18.678;2023-06-22T09:44:33;99228.78;;;28.99;50.77
80733;BME280;70130;44.534;18.678;2023-06-22T09:46:59;99222.91;;;29.10;51.96
80733;BME280;70130;44.534;18.678;2023-06-22T09:49:25;99232.50;;;29.18;51.07
80733;BME280;70130;44.534;18.678;2023-06-22T09:51:51;99224.09;;;29.22;49.38
80733;BME280;70130;44.534;18.678;2023-06-22T09:54:17;99223.78;;;29.32;48.78
80733;BME280;70130;44.534;18.678;2023-06-22T09:56:43;99221.59;;;29.40;48.19
80733;BME280;70130;44.534;18.678;2023-06-22T09:59:09;99221.69;;;29.36;47.41
80733;BME280;70130;44.534;18.678;2023-06-22T10:01:35;99229.88;;;29.40;49.81
80733;BME280;70130;44.534;18.678;2023-06-22T10:04:02;99216.56;;;29.60;49.27
80733;BME280;70130;44.534;18.678;2023-06-22T10:06:27;99218.09;;;29.61;47.41
80733;BME280;70130;44.534;18.678;2023-06-22T10:08:53;99210.66;;;29.71;47.37
80733;BME280;70130;44.534;18.678;2023-06-22T10:11:19;99209.63;;;29.77;46.13
80733;BME280;70130;44.534;18.678;2023-06-22T10:13:44;99200.78;;;29.82;45.85
80733;BME280;70130;44.534;18.678;2023-06-22T10:16:10;99197.66;;;29.93;47.01
80733;BME280;70130;44.534;18.678;2023-06-22T10:18:36;99194.97;;;30.02;48.33
80733;BME280;70130;44.534;18.678;2023-06-22T10:21:01;99196.72;;;30.09;48.49
80733;BME280;70130;44.534;18.678;2023-06-22T10:23:27;99197.97;;;30.17;48.68
80733;BME280;70130;44.534;18.678;2023-06-22T10:25:53;99190.06;;;30.28;48.00
80733;BME280;70130;44.534;18.678;2023-06-22T10:28:18;99196.44;;;30.37;47.86
80733;BME280;70130;44.534;18.678;2023-06-22T10:30:44;99196.69;;;30.52;47.97
80733;BME280;70130;44.534;18.678;2023-06-22T10:33:10;99191.94;;;30.53;47.74
80733;BME280;70130;44.534;18.678;2023-06-22T10:35:37;99194.56;;;30.56;47.51
80733;BME280;70130;44.534;18.678;2023-06-22T10:41:50;99185.91;;;30.54;47.16
80733;BME280;70130;44.534;18.678;2023-06-22T10:44:16;99176.88;;;30.54;47.52
80733;BME280;70130;44.534;18.678;2023-06-22T10:46:42;99179.34;;;30.61;47.17
80733;BME280;70130;44.534;18.678;2023-06-22T10:49:08;99184.69;;;30.55;47.71
80733;BME280;70130;44.534;18.678;2023-06-22T10:51:34;99181.72;;;30.71;47.88
80733;BME280;70130;44.534;18.678;2023-06-22T10:53:59;99182.84;;;30.83;46.74
80733;BME280;70130;44.534;18.678;2023-06-22T10:56:25;99180.47;;;31.03;46.56
80733;BME280;70130;44.534;18.678;2023-06-22T10:58:51;99178.41;;;30.95;45.15
80733;BME280;70130;44.534;18.678;2023-06-22T11:01:17;99179.72;;;31.03;45.91
80733;BME280;70130;44.534;18.678;2023-06-22T11:03:42;99182.78;;;31.14;45.53
80733;BME280;70130;44.534;18.678;2023-06-22T11:06:08;99181.91;;;31.17;45.41
80733;BME280;70130;44.534;18.678;2023-06-22T11:08:34;99172.63;;;31.02;44.93
80733;BME280;70130;44.534;18.678;2023-06-22T11:11:00;99178.88;;;30.93;45.40
80733;BME280;70130;44.534;18.678;2023-06-22T11:13:25;99178.81;;;31.15;44.00
80733;BME280;70130;44.534;18.678;2023-06-22T11:15:51;99169.25;;;31.07;44.24
80733;BME280;70130;44.534;18.678;2023-06-22T11:18:16;99167.28;;;31.25;43.47
80733;BME280;70130;44.534;18.678;2023-06-22T11:20:42;99171.63;;;31.45;43.57
80733;BME280;70130;44.534;18.678;2023-06-22T11:23:08;99169.00;;;31.50;43.48
80733;BME280;70130;44.534;18.678;2023-06-22T11:25:33;99168.56;;;31.79;42.91
80733;BME280;70130;44.534;18.678;2023-06-22T11:28:06;99162.09;;;31.64;40.22
80733;BME280;70130;44.534;18.678;2023-06-22T11:30:32;99160.25;;;31.70;39.11
80733;BME280;70130;44.534;18.678;2023-06-22T11:32:58;99161.31;;;31.63;42.30
80733;BME280;70130;44.534;18.678;2023-06-22T11:35:24;99164.88;;;31.91;41.63
80733;BME280;70130;44.534;18.678;2023-06-22T11:37:50;99161.47;;;31.96;39.51
80733;BME280;70130;44.534;18.678;2023-06-22T11:40:16;99164.44;;;32.11;39.59
80733;BME280;70130;44.534;18.678;2023-06-22T11:42:43;99161.00;;;32.07;40.22
80733;BME280;70130;44.534;18.678;2023-06-22T11:45:09;99154.09;;;32.11;38.79
80733;BME280;70130;44.534;18.678;2023-06-22T11:47:35;99150.03;;;32.31;37.09
80733;BME280;70130;44.534;18.678;2023-06-22T11:50:02;99146.13;;;32.37;35.81
80733;BME280;70130;44.534;18.678;2023-06-22T11:52:28;99150.81;;;32.22;35.64
80733;BME280;70130;44.534;18.678;2023-06-22T11:54:54;99145.22;;;32.40;38.84
80733;BME280;70130;44.534;18.678;2023-06-22T11:57:20;99138.53;;;32.47;37.97
80733;BME280;70130;44.534;18.678;2023-06-22T11:59:45;99141.84;;;32.36;35.86
80733;BME280;70130;44.534;18.678;2023-06-22T12:02:11;99152.00;;;32.39;36.26
80733;BME280;70130;44.534;18.678;2023-06-22T12:04:36;99137.94;;;32.43;36.21
80733;BME280;70130;44.534;18.678;2023-06-22T12:07:03;99140.38;;;32.59;36.99
80733;BME280;70130;44.534;18.678;2023-06-22T12:09:29;99139.56;;;32.68;37.40
80733;BME280;70130;44.534;18.678;2023-06-22T12:12:00;99134.69;;;32.86;37.64
80733;BME280;70130;44.534;18.678;2023-06-22T12:14:27;99136.41;;;32.84;37.07
80733;BME280;70130;44.534;18.678;2023-06-22T12:16:52;99127.63;;;32.76;36.17
80733;BME280;70130;44.534;18.678;2023-06-22T12:19:18;99129.25;;;32.92;36.84
80733;BME280;70130;44.534;18.678;2023-06-22T12:21:45;99120.41;;;33.03;36.93
80733;BME280;70130;44.534;18.678;2023-06-22T12:24:13;99124.91;;;33.00;36.62
80733;BME280;70130;44.534;18.678;2023-06-22T12:26:38;99119.25;;;33.18;36.72
80733;BME280;70130;44.534;18.678;2023-06-22T12:29:04;99115.50;;;33.21;36.65
80733;BME280;70130;44.534;18.678;2023-06-22T12:31:30;99116.50;;;33.09;36.75
80733;BME280;70130;44.534;18.678;2023-06-22T12:33:55;99107.78;;;33.25;34.93
80733;BME280;70130;44.534;18.678;2023-06-22T12:36:21;99107.53;;;33.38;36.71
80733;BME280;70130;44.534;18.678;2023-06-22T12:38:47;99101.75;;;33.41;35.76
80733;BME280;70130;44.534;18.678;2023-06-22T12:41:13;99101.97;;;33.38;34.94
80733;BME280;70130;44.534;18.678;2023-06-22T12:43:40;99094.66;;;33.40;33.82
80733;BME280;70130;44.534;18.678;2023-06-22T12:46:06;99084.72;;;33.49;34.01
80733;BME280;70130;44.534;18.678;2023-06-22T12:48:31;99089.53;;;33.63;33.43
80733;BME280;70130;44.534;18.678;2023-06-22T12:50:57;99084.97;;;33.74;34.58
80733;BME280;70130;44.534;18.678;2023-06-22T12:53:22;99086.72;;;33.48;33.87
80733;BME280;70130;44.534;18.678;2023-06-22T12:55:49;99070.97;;;33.69;36.05
80733;BME280;70130;44.534;18.678;2023-06-22T12:58:14;99077.97;;;33.94;36.45